Lewes Beach, Delaware
Current Conditions -  °F | °C
As of 5:33 PM on Monday 22 Dec 2014 (Local Time) from KGED Reporting Station
Light Rain Light Rain  
Wind Chill: 38°   Ceiling: 3800
Heat Index: 43°   Visibility: 7mi
Dew Point: 40°   Wind: 9mph
Humidity: 89%   Direction: 60°ENE
Pressure: 30.12"   Gusts: NA
Location:  38.7339°N, 75.1733°W
Report Text: KGED 222233Z AUTO 06008KT 7SM -RA SCT016 BKN038 OVC065 06/04 A3012 RMK AO2 RAB28 P0000 T00610044
Loading
Personal Weather Stations






























Interactive Weather Map New forecast layout! Learn more

10-Day Weather Forecast

Advertisements
Track Severe Weather on mobile